createdAt,value
2019-04-23T00:00:42.475Z,88.25
2019-04-23T00:03:34.433Z,88.34
2019-04-23T00:04:28.357Z,88.25
2019-04-23T00:06:30.217Z,87.87
2019-04-23T00:07:39.630Z,87.96
2019-04-23T00:09:22.293Z,88.82
2019-04-23T00:10:23.137Z,89.25
2019-04-23T00:12:13.305Z,88.73
2019-04-23T00:13:05.751Z,89.06
2019-04-23T00:15:07.412Z,89.25
2019-04-23T00:16:08.915Z,89.25
2019-04-23T00:17:58.410Z,89.73
2019-04-23T00:18:53.835Z,89.83
2019-04-23T00:20:48.006Z,89.25
2019-04-23T00:21:45.860Z,89.45
2019-04-23T00:23:44.672Z,88.87
2019-04-23T00:24:56.858Z,89.25
2019-04-23T00:26:40.223Z,88.87
2019-04-23T00:29:31.964Z,88.87
2019-04-23T00:30:26.551Z,88.87
2019-04-23T00:32:23.917Z,88.97
2019-04-23T00:33:27.055Z,89.35
2019-04-23T00:35:31.334Z,89.45
2019-04-23T00:36:12.782Z,89.83
2019-04-23T00:38:06.075Z,90.02
2019-04-23T00:39:08.620Z,89.92
2019-04-23T00:40:58.218Z,89.54
2019-04-23T00:41:57.408Z,89.35
2019-04-23T00:43:54.727Z,89.92
2019-04-23T00:44:52.814Z,89.92
2019-04-23T00:46:45.272Z,90.21
2019-04-23T00:47:46.757Z,89.83
2019-04-23T00:49:39.918Z,89.73
2019-04-23T00:50:49.238Z,89.25
2019-04-23T00:52:26.573Z,89.16
2019-04-23T00:53:37.969Z,89.92
2019-04-23T00:55:35.218Z,90.11
2019-04-23T00:59:12.729Z,89.25
2019-04-23T01:01:07.409Z,89.73
2019-04-23T01:02:23.842Z,89.54
2019-04-23T01:03:58.035Z,90.11
2019-04-23T01:05:05.117Z,89.69
2019-04-23T01:06:52.623Z,89.31
2019-04-23T01:07:51.589Z,90.17
2019-04-23T01:09:45.620Z,90.07
2019-04-23T01:10:45.961Z,89.88
2019-04-23T01:12:46.185Z,89.78
2019-04-23T01:15:32.377Z,89.40
2019-04-23T01:16:31.763Z,89.50
2019-04-23T01:18:30.227Z,89.50
2019-04-23T01:19:24.657Z,89.88
2019-04-23T01:20:54.809Z,89.69
2019-04-23T01:21:55.654Z,90.17
2019-04-23T01:23:54.824Z,89.59
2019-04-23T01:24:48.761Z,89.21
2019-04-23T01:27:18.374Z,89.40
2019-04-23T01:28:02.142Z,88.83
2019-04-23T01:29:58.492Z,89.21
2019-04-23T01:31:05.611Z,89.12
2019-04-23T01:32:48.259Z,89.40
2019-04-23T01:33:53.321Z,89.21
2019-04-23T01:35:44.240Z,89.21
2019-04-23T01:36:37.736Z,89.31
2019-04-23T01:38:42.264Z,89.69
2019-04-23T01:39:32.732Z,89.02
2019-04-23T01:41:28.879Z,89.21
2019-04-23T01:42:37.323Z,89.31
2019-04-23T01:44:32.804Z,89.69
2019-04-23T01:45:35.920Z,89.59
2019-04-23T01:47:18.612Z,89.40
2019-04-23T01:48:13.224Z,89.31
2019-04-23T01:51:03.455Z,88.73
2019-04-23T01:53:58.666Z,89.17
2019-04-23T01:56:30.813Z,89.50
2019-04-23T01:57:32.187Z,89.31
2019-04-23T01:59:25.143Z,90.17
2019-04-23T02:02:22.493Z,89.54
2019-04-23T02:03:15.132Z,89.45
2019-04-23T02:05:19.313Z,89.26
2019-04-23T02:06:07.434Z,89.17
2019-04-23T02:08:03.583Z,89.54
2019-04-23T02:10:01.836Z,89.74
2019-04-23T02:14:01.919Z,89.74
2019-04-23T02:14:49.949Z,89.17
2019-04-23T02:16:44.080Z,89.17
2019-04-23T02:17:45.018Z,89.07
2019-04-23T02:20:39.352Z,88.88
2019-04-23T02:22:30.886Z,88.78
2019-04-23T02:23:30.088Z,88.88
2019-04-23T02:25:24.856Z,88.69
2019-04-23T02:26:26.226Z,88.88
2019-04-23T02:28:28.575Z,89.45
2019-04-23T02:29:23.537Z,89.07
2019-04-23T02:31:23.494Z,88.78
2019-04-23T02:36:54.505Z,88.12
2019-04-23T02:38:00.853Z,88.50
2019-04-23T02:39:57.329Z,88.59
2019-04-23T02:43:59.190Z,88.78
2019-04-23T02:45:43.976Z,88.88
2019-04-23T02:46:56.718Z,89.07
2019-04-23T02:48:24.789Z,88.78
2019-04-23T02:49:26.979Z,88.78
2019-04-23T02:51:18.098Z,88.78
2019-04-23T02:54:36.771Z,88.98
2019-04-23T02:56:55.686Z,88.21
2019-04-23T03:05:57.416Z,87.98
2019-04-23T03:08:46.680Z,88.55
2019-04-23T03:09:36.765Z,88.64
2019-04-23T03:12:43.374Z,88.17
2019-04-23T03:14:25.023Z,88.55
2019-04-23T03:18:35.044Z,88.17
2019-04-23T03:20:11.213Z,88.17
2019-04-23T03:21:15.520Z,88.17
2019-04-23T03:23:02.684Z,88.64
2019-04-23T03:24:00.048Z,88.07
2019-04-23T03:26:01.254Z,87.98
2019-04-23T03:27:08.154Z,87.60
2019-04-23T03:29:49.080Z,87.88
2019-04-23T03:36:33.824Z,87.69
2019-04-23T03:37:33.941Z,87.79
2019-04-23T03:38:39.452Z,87.98
2019-04-23T03:40:21.449Z,87.79
2019-04-23T03:44:05.182Z,87.50
2019-04-23T03:47:05.964Z,87.21
2019-04-23T03:49:55.402Z,87.50
2019-04-23T03:52:39.168Z,86.83
2019-04-23T03:57:38.367Z,86.74
2019-04-23T04:01:29.149Z,86.36
2019-04-23T04:04:25.185Z,85.78
2019-04-23T04:06:14.200Z,86.45
2019-04-23T04:09:23.408Z,85.69
2019-04-23T04:11:55.110Z,85.69
2019-04-23T04:12:46.436Z,86.74
2019-04-23T04:15:01.331Z,86.16
2019-04-23T04:17:55.426Z,85.88
2019-04-23T04:20:53.836Z,85.69
2019-04-23T04:21:36.832Z,85.60
2019-04-23T04:23:33.286Z,85.12
2019-04-23T04:26:20.710Z,85.31
2019-04-23T04:29:10.841Z,84.92
2019-04-23T04:30:27.721Z,85.02
2019-04-23T04:32:02.581Z,84.92
2019-04-23T04:33:05.486Z,85.02
2019-04-23T04:36:14.362Z,85.02
2019-04-23T04:37:53.189Z,84.26
2019-04-23T04:38:47.363Z,84.22
2019-04-23T04:40:42.160Z,84.36
2019-04-23T04:43:41.338Z,84.26
2019-04-23T04:44:52.391Z,84.64
2019-04-23T04:47:44.103Z,83.59
2019-04-23T04:49:41.449Z,83.69
2019-04-23T04:53:35.737Z,83.50
2019-04-23T04:55:03.101Z,83.88
2019-04-23T04:58:12.458Z,82.54
2019-04-23T05:01:04.029Z,82.54
2019-04-23T05:04:52.515Z,82.17
2019-04-23T05:06:44.314Z,82.26
2019-04-23T05:07:50.082Z,82.73
2019-04-23T05:10:34.618Z,81.88
2019-04-23T05:12:22.789Z,82.07
2019-04-23T05:15:23.397Z,81.49
2019-04-23T05:16:13.939Z,81.02
2019-04-23T05:19:19.797Z,81.40
2019-04-23T05:20:58.137Z,81.30
2019-04-23T05:21:58.948Z,80.92
2019-04-23T05:23:50.925Z,80.49
2019-04-23T05:24:45.152Z,80.44
2019-04-23T05:26:33.227Z,80.39
2019-04-23T05:27:47.869Z,79.82
2019-04-23T05:29:31.224Z,80.20
2019-04-23T05:30:40.691Z,79.82
2019-04-23T05:32:26.516Z,79.63
2019-04-23T05:33:23.551Z,79.72
2019-04-23T05:35:09.888Z,79.06
2019-04-23T05:36:35.943Z,78.39
2019-04-23T05:38:29.758Z,77.95
2019-04-23T05:39:16.990Z,77.76
2019-04-23T05:41:10.358Z,77.57
2019-04-23T05:42:02.020Z,77.19
2019-04-23T05:44:57.292Z,75.16
2019-04-23T05:46:45.468Z,73.00
2019-04-23T05:47:51.637Z,71.57
2019-04-23T05:49:41.383Z,70.30
2019-04-23T05:50:50.751Z,69.32
2019-04-23T05:52:39.684Z,67.53
2019-04-23T05:53:40.853Z,67.08
2019-04-23T05:55:26.438Z,65.97
2019-04-23T05:56:27.433Z,66.00
2019-04-23T05:58:22.016Z,68.55
2019-04-23T05:59:16.308Z,69.98
2019-04-23T06:01:36.765Z,69.25
2019-04-23T06:02:33.693Z,67.60
2019-04-23T06:04:11.707Z,66.06
2019-04-23T06:05:04.207Z,65.23
2019-04-23T06:07:15.014Z,63.99
2019-04-23T06:07:55.202Z,64.09
2019-04-23T06:09:56.705Z,64.53
2019-04-23T06:12:45.468Z,64.02
2019-04-23T06:13:56.240Z,62.49
2019-04-23T06:15:36.967Z,62.39
2019-04-23T06:18:33.183Z,60.11
2019-04-23T06:19:21.503Z,59.16
2019-04-23T06:21:28.577Z,58.48
2019-04-23T06:22:30.095Z,58.91
2019-04-23T06:24:23.939Z,59.77
2019-04-23T06:25:24.872Z,59.67
2019-04-23T06:27:06.704Z,59.83
2019-04-23T06:28:15.522Z,59.89
2019-04-23T06:29:59.298Z,58.96
2019-04-23T06:31:04.598Z,58.35
2019-04-23T06:32:51.565Z,55.18
2019-04-23T06:33:54.261Z,55.79
2019-04-23T06:35:46.920Z,57.26
2019-04-23T06:36:45.124Z,57.78
2019-04-23T06:38:44.965Z,59.38
2019-04-23T06:41:46.319Z,56.95
2019-04-23T06:42:32.383Z,57.30
2019-04-23T06:44:28.466Z,58.20
2019-04-23T06:45:22.137Z,58.22
2019-04-23T06:47:12.657Z,58.23
2019-04-23T06:50:04.625Z,60.05
2019-04-23T06:51:15.869Z,61.05
2019-04-23T06:52:57.266Z,59.86
2019-04-23T06:53:59.943Z,59.96
2019-04-23T06:55:57.762Z,60.03
2019-04-23T06:57:15.021Z,60.31
2019-04-23T06:58:44.042Z,59.80
2019-04-23T07:00:02.303Z,58.80
2019-04-23T07:01:51.053Z,58.42
2019-04-23T07:02:37.671Z,57.55
2019-04-23T07:04:34.323Z,57.75
2019-04-23T07:05:42.740Z,57.45
2019-04-23T07:08:34.679Z,58.84
2019-04-23T07:10:18.704Z,58.51
2019-04-23T07:13:14.316Z,57.00
2019-04-23T07:14:07.344Z,57.48
2019-04-23T07:16:04.676Z,57.55
2019-04-23T07:17:03.926Z,57.45
2019-04-23T07:18:54.437Z,57.17
2019-04-23T07:19:54.656Z,57.87
2019-04-23T07:21:51.227Z,58.81
2019-04-23T07:22:49.911Z,59.58
2019-04-23T07:24:42.007Z,60.63
2019-04-23T07:25:38.964Z,60.05
2019-04-23T07:27:31.776Z,60.35
2019-04-23T07:28:36.313Z,60.11
2019-04-23T07:30:31.529Z,59.28
2019-04-23T07:31:26.575Z,58.73
2019-04-23T07:33:19.176Z,57.51
2019-04-23T07:34:18.468Z,56.84
2019-04-23T07:36:20.687Z,56.38
2019-04-23T07:37:15.044Z,56.26
2019-04-23T07:40:22.977Z,54.97
2019-04-23T07:42:11.165Z,55.59
2019-04-23T07:43:00.024Z,56.88
2019-04-23T07:45:53.117Z,57.62
2019-04-23T07:47:40.127Z,58.22
2019-04-23T07:48:43.980Z,57.75
2019-04-23T07:50:39.121Z,57.65
2019-04-23T07:51:36.840Z,57.75
2019-04-23T07:53:29.671Z,58.13
2019-04-23T07:54:29.053Z,58.51
2019-04-23T07:56:22.126Z,59.19
2019-04-23T07:57:35.119Z,59.25
2019-04-23T07:59:20.676Z,59.70
2019-04-23T08:00:23.372Z,59.92
2019-04-23T08:02:17.706Z,59.28
2019-04-23T08:03:17.674Z,58.70
2019-04-23T08:05:07.623Z,59.16
2019-04-23T08:05:59.149Z,59.73
2019-04-23T08:07:59.013Z,58.54
2019-04-23T08:09:13.069Z,57.77
2019-04-23T08:11:11.190Z,56.96
2019-04-23T08:12:04.756Z,56.38
2019-04-23T08:14:44.756Z,57.77
2019-04-23T08:16:34.238Z,57.39
2019-04-23T08:17:29.169Z,57.47
2019-04-23T08:19:32.303Z,56.55
2019-04-23T08:20:26.776Z,57.90
2019-04-23T08:22:35.598Z,57.64
2019-04-23T08:23:16.554Z,57.10
2019-04-23T08:25:14.321Z,58.92
2019-04-23T08:26:19.370Z,58.61
2019-04-23T08:28:11.842Z,58.47
2019-04-23T08:29:07.816Z,58.28
2019-04-23T08:30:45.355Z,57.35
2019-04-23T08:32:11.782Z,56.91
2019-04-23T08:33:49.925Z,57.73
2019-04-23T08:34:56.414Z,57.21
2019-04-23T08:36:44.358Z,56.38
2019-04-23T08:40:33.561Z,56.54
2019-04-23T08:42:46.744Z,54.80
2019-04-23T08:46:24.788Z,56.16
2019-04-23T08:49:13.331Z,58.06
2019-04-23T08:51:18.150Z,57.54
2019-04-23T08:52:10.107Z,56.51
2019-04-23T08:53:57.029Z,55.31
2019-04-23T08:56:57.074Z,55.55
2019-04-23T08:57:45.323Z,57.54
2019-04-23T08:59:45.203Z,57.28
2019-04-23T09:00:46.307Z,56.32
2019-04-23T09:02:54.694Z,57.60
2019-04-23T09:03:34.576Z,56.09
2019-04-23T09:05:36.264Z,54.44
2019-04-23T09:06:46.688Z,54.83
2019-04-23T09:08:21.828Z,54.54
2019-04-23T09:09:20.279Z,54.61
2019-04-23T09:11:35.154Z,56.54
2019-04-23T09:12:16.534Z,55.15
2019-04-23T09:13:59.588Z,55.31
2019-04-23T09:15:07.162Z,55.45
2019-04-23T09:18:06.310Z,54.32
2019-04-23T09:20:11.756Z,54.47
2019-04-23T09:20:53.055Z,54.25
2019-04-23T09:25:44.085Z,54.86
2019-04-23T09:26:33.189Z,54.25
2019-04-23T09:29:44.009Z,54.68
2019-04-23T09:31:30.378Z,55.35
2019-04-23T09:34:33.858Z,54.87
2019-04-23T09:37:11.958Z,54.06
2019-04-23T09:38:07.041Z,53.67
2019-04-23T09:40:14.929Z,53.73
2019-04-23T09:43:00.643Z,51.87
2019-04-23T09:43:59.202Z,53.03
2019-04-23T09:45:48.762Z,53.22
2019-04-23T09:46:48.313Z,53.74
2019-04-23T09:48:45.663Z,54.85
2019-04-23T09:49:44.346Z,55.38
2019-04-23T09:51:35.942Z,54.68
2019-04-23T09:52:35.762Z,55.09
2019-04-23T09:54:28.854Z,53.23
2019-04-23T09:55:30.046Z,54.13
2019-04-23T09:57:17.160Z,53.94
2019-04-23T10:00:18.013Z,54.06
2019-04-23T10:01:17.341Z,53.39
2019-04-23T10:02:56.868Z,52.40
2019-04-23T10:03:50.812Z,51.65
2019-04-23T10:05:37.265Z,51.32
2019-04-23T10:06:32.512Z,52.33
2019-04-23T10:08:27.936Z,51.68
2019-04-23T10:09:22.716Z,52.91
2019-04-23T10:11:15.861Z,52.64
2019-04-23T10:12:14.648Z,53.03
2019-04-23T10:14:08.172Z,53.48
2019-04-23T10:15:13.734Z,53.61
2019-04-23T10:17:00.016Z,52.59
2019-04-23T10:18:00.380Z,52.11
2019-04-23T10:19:52.997Z,52.25
2019-04-23T10:20:52.412Z,52.93
2019-04-23T10:22:46.157Z,52.19
2019-04-23T10:23:45.203Z,52.37
2019-04-23T10:25:38.327Z,51.97
2019-04-23T10:26:37.945Z,52.69
2019-04-23T10:28:31.776Z,53.70
2019-04-23T10:29:31.823Z,52.73
2019-04-23T10:31:23.098Z,53.80
2019-04-23T10:32:22.915Z,53.70
2019-04-23T10:34:17.039Z,53.31
2019-04-23T10:35:25.748Z,53.05
2019-04-23T10:37:09.472Z,53.25
2019-04-23T10:38:12.503Z,53.25
2019-04-23T10:40:05.786Z,53.17
2019-04-23T10:41:02.257Z,52.40
2019-04-23T10:42:54.441Z,52.86
2019-04-23T10:43:56.172Z,53.22
2019-04-23T10:46:08.028Z,54.47
2019-04-23T10:47:12.391Z,54.44
2019-04-23T10:49:22.196Z,55.00
2019-04-23T10:50:27.343Z,55.99
2019-04-23T10:53:10.253Z,55.65
2019-04-23T10:54:47.980Z,57.35
2019-04-23T10:55:56.336Z,57.92
2019-04-23T10:57:37.032Z,58.47
2019-04-23T10:58:38.319Z,58.89
2019-04-23T11:00:42.155Z,58.57
2019-04-23T11:01:58.686Z,58.70
2019-04-23T11:03:48.994Z,58.37
2019-04-23T11:09:34.789Z,60.42
2019-04-23T11:10:16.111Z,61.71
2019-04-23T11:12:16.301Z,59.27
2019-04-23T11:13:10.604Z,61.22
2019-04-23T11:15:16.508Z,60.81
2019-04-23T11:16:27.419Z,60.78
2019-04-23T11:17:48.026Z,60.62
2019-04-23T11:21:07.518Z,60.42
2019-04-23T11:21:59.638Z,60.52
2019-04-23T11:23:42.982Z,60.04
2019-04-23T11:24:41.588Z,59.85
2019-04-23T11:26:34.469Z,60.52
2019-04-23T11:27:37.681Z,60.42
2019-04-23T11:29:34.303Z,60.24
2019-04-23T11:30:33.114Z,60.72
2019-04-23T11:32:42.881Z,60.11
2019-04-23T11:38:58.521Z,59.92
2019-04-23T11:40:56.661Z,60.52
2019-04-23T11:42:11.598Z,60.36
2019-04-23T11:43:46.380Z,59.17
2019-04-23T11:44:56.430Z,59.75
2019-04-23T11:48:12.322Z,59.92
2019-04-23T11:51:10.442Z,60.42
2019-04-23T11:52:36.405Z,60.24
2019-04-23T11:53:33.903Z,60.14
2019-04-23T11:55:35.781Z,59.27
2019-04-23T11:56:46.044Z,59.85
2019-04-23T11:58:33.964Z,59.49
2019-04-23T11:59:19.087Z,59.27
2019-04-23T12:01:46.412Z,59.85
2019-04-23T12:01:56.240Z,60.04
2019-04-23T12:04:05.666Z,59.66
2019-04-23T12:06:52.810Z,59.59
2019-04-23T12:07:49.845Z,59.59
2019-04-23T12:09:46.522Z,58.63
2019-04-23T12:10:45.875Z,59.40
2019-04-23T12:12:33.262Z,59.37
2019-04-23T12:13:52.762Z,59.17
2019-04-23T12:15:32.718Z,59.53
2019-04-23T12:16:38.099Z,59.75
2019-04-23T12:18:30.537Z,59.47
2019-04-23T12:19:44.068Z,59.66
2019-04-23T12:22:22.257Z,59.34
2019-04-23T12:24:17.062Z,60.04
2019-04-23T12:27:47.054Z,59.49
2019-04-23T12:29:52.728Z,58.65
2019-04-23T12:30:50.531Z,58.82
2019-04-23T12:33:52.294Z,58.63
2019-04-23T12:35:35.577Z,58.31
2019-04-23T12:38:25.514Z,59.27
2019-04-23T12:39:32.935Z,59.88
2019-04-23T12:41:20.736Z,59.33
2019-04-23T12:42:43.561Z,58.22
2019-04-23T12:44:14.909Z,59.47
2019-04-23T12:45:29.084Z,59.75
2019-04-23T12:47:17.151Z,59.49
2019-04-23T12:48:15.722Z,59.08
2019-04-23T12:50:19.021Z,59.56
2019-04-23T12:51:28.261Z,59.88
2019-04-23T12:52:51.072Z,59.59
2019-04-23T12:53:49.354Z,59.11
2019-04-23T12:55:48.129Z,59.75
2019-04-23T12:56:56.806Z,59.85
2019-04-23T12:58:34.111Z,59.85
2019-04-23T12:59:44.312Z,60.04
2019-04-23T13:01:44.297Z,59.94
2019-04-23T13:02:39.445Z,60.33
2019-04-23T13:04:24.978Z,60.42
2019-04-23T13:07:26.406Z,60.78
2019-04-23T13:08:27.458Z,61.55
2019-04-23T13:10:09.172Z,61.36
2019-04-23T13:11:15.272Z,61.36
2019-04-23T13:13:08.647Z,61.84
2019-04-23T13:14:06.963Z,61.74
2019-04-23T13:16:05.903Z,61.46
2019-04-23T13:17:01.856Z,61.29
2019-04-23T13:18:52.772Z,61.29
2019-04-23T13:19:58.238Z,60.72
2019-04-23T13:24:37.357Z,63.38
2019-04-23T13:27:24.267Z,63.38
2019-04-23T13:28:28.013Z,63.76
2019-04-23T13:30:25.332Z,62.71
2019-04-23T13:31:15.049Z,62.13
2019-04-23T13:33:26.800Z,62.26
2019-04-23T13:34:15.774Z,61.10
2019-04-23T13:37:16.270Z,61.58
2019-04-23T13:38:57.221Z,61.84
2019-04-23T13:40:17.872Z,61.07
2019-04-23T13:41:47.885Z,61.68
2019-04-23T13:42:52.536Z,61.10
2019-04-23T13:44:45.584Z,61.39
2019-04-23T13:45:59.220Z,61.19
2019-04-23T13:47:47.224Z,61.84
2019-04-23T13:48:24.761Z,62.03
2019-04-23T13:50:42.070Z,61.94
2019-04-23T13:51:34.243Z,62.80
2019-04-23T13:54:27.835Z,61.84
2019-04-23T13:56:20.769Z,62.13
2019-04-23T14:00:15.429Z,62.35
2019-04-23T14:02:04.068Z,61.94
2019-04-23T14:02:57.939Z,62.71
2019-04-23T14:05:06.383Z,62.71
2019-04-23T14:05:49.401Z,62.71
2019-04-23T14:07:48.392Z,63.18
2019-04-23T14:10:40.214Z,63.67
2019-04-23T14:11:45.220Z,63.48
2019-04-23T14:13:46.333Z,64.25
2019-04-23T14:14:41.692Z,63.76
2019-04-23T14:16:39.314Z,64.34
2019-04-23T14:17:40.891Z,64.82
2019-04-23T14:19:28.315Z,65.17
2019-04-23T14:20:13.793Z,64.69
2019-04-23T14:23:13.012Z,65.94
2019-04-23T14:26:18.589Z,67.38
2019-04-23T14:28:05.611Z,68.02
2019-04-23T14:28:51.226Z,67.86
2019-04-23T14:30:53.459Z,68.15
2019-04-23T14:31:43.292Z,67.86
2019-04-23T14:33:50.629Z,68.06
2019-04-23T14:34:43.616Z,67.38
2019-04-23T14:36:52.327Z,67.48
2019-04-23T14:37:45.625Z,68.35
2019-04-23T14:39:28.766Z,68.44
2019-04-23T14:42:33.218Z,68.35
2019-04-23T14:43:22.146Z,67.86
2019-04-23T14:45:24.304Z,68.63
2019-04-23T14:48:12.291Z,69.08
2019-04-23T14:50:58.021Z,69.37
2019-04-23T14:52:00.360Z,69.56
2019-04-23T14:55:22.383Z,69.95
2019-04-23T14:56:44.873Z,69.95
2019-04-23T14:57:49.769Z,69.56
2019-04-23T14:59:30.722Z,69.95
2019-04-23T15:00:41.349Z,70.62
2019-04-23T15:02:38.239Z,70.52
2019-04-23T15:03:32.456Z,70.72
2019-04-23T15:05:25.843Z,70.87
2019-04-23T15:08:15.296Z,71.67
2019-04-23T15:12:10.771Z,72.99
2019-04-23T15:14:06.560Z,73.46
2019-04-23T15:16:54.421Z,73.66
2019-04-23T15:17:53.531Z,73.85
2019-04-23T15:21:01.295Z,74.23
2019-04-23T15:22:43.924Z,73.75
2019-04-23T15:23:54.030Z,74.23
2019-04-23T15:25:36.784Z,74.62
2019-04-23T15:28:13.265Z,74.19
2019-04-23T15:29:04.528Z,74.68
2019-04-23T15:31:23.444Z,74.48
2019-04-23T15:32:34.973Z,75.06
2019-04-23T15:34:14.047Z,75.73
2019-04-23T15:35:16.240Z,75.35
2019-04-23T15:40:04.330Z,76.40
2019-04-23T15:40:51.205Z,76.31
2019-04-23T15:42:51.579Z,77.61
2019-04-23T15:43:52.173Z,78.77
2019-04-23T15:45:40.202Z,78.86
2019-04-23T15:46:41.134Z,78.96
2019-04-23T15:48:31.387Z,78.86
2019-04-23T15:49:32.249Z,78.23
2019-04-23T15:52:35.153Z,78.00
2019-04-23T15:54:17.938Z,78.77
2019-04-23T15:55:16.179Z,78.61
2019-04-23T15:57:12.386Z,78.38
2019-04-23T15:59:58.948Z,77.80
2019-04-23T16:01:10.839Z,78.47
2019-04-23T16:02:25.444Z,78.99
2019-04-23T16:03:28.996Z,79.44
2019-04-23T16:05:20.204Z,79.91
2019-04-23T16:06:22.021Z,79.72
2019-04-23T16:08:49.736Z,80.97
2019-04-23T16:09:36.176Z,80.97
2019-04-23T16:12:31.391Z,82.51
2019-04-23T16:14:40.813Z,83.47
2019-04-23T16:15:19.341Z,82.98
2019-04-23T16:17:21.203Z,83.27
2019-04-23T16:18:29.841Z,83.18
2019-04-23T16:21:26.632Z,82.98
2019-04-23T16:22:57.452Z,83.18
2019-04-23T16:24:06.116Z,83.08
2019-04-23T16:26:01.901Z,83.04
2019-04-23T16:27:01.552Z,82.94
2019-04-23T16:29:07.104Z,82.60
2019-04-23T16:31:39.819Z,82.98
2019-04-23T16:32:53.587Z,82.94
2019-04-23T16:34:33.317Z,83.08
2019-04-23T16:35:46.199Z,82.85
2019-04-23T16:37:32.572Z,82.79
2019-04-23T16:38:34.209Z,83.27
2019-04-23T16:40:33.057Z,82.60
2019-04-23T16:41:16.872Z,83.18
2019-04-23T16:44:18.401Z,82.94
2019-04-23T16:46:07.128Z,82.79
2019-04-23T16:49:10.203Z,83.65
2019-04-23T16:51:45.941Z,83.33
2019-04-23T16:52:53.675Z,84.00
2019-04-23T16:54:53.789Z,84.48
2019-04-23T16:55:52.240Z,84.95
2019-04-23T16:57:57.320Z,85.44
2019-04-23T16:58:52.681Z,85.44
2019-04-23T17:00:31.263Z,85.72
2019-04-23T17:01:21.242Z,86.21
2019-04-23T17:03:26.194Z,87.26
2019-04-23T17:07:08.448Z,88.31
2019-04-23T17:12:06.001Z,89.42
2019-04-23T17:13:16.266Z,89.90
2019-04-23T17:14:54.495Z,90.61
2019-04-23T17:16:00.224Z,90.86
2019-04-23T17:17:40.994Z,91.05
2019-04-23T17:18:49.762Z,90.67
2019-04-23T17:20:37.532Z,91.14
2019-04-23T17:21:53.285Z,91.24
2019-04-23T17:23:40.072Z,91.72
2019-04-23T17:24:30.546Z,91.53
2019-04-23T17:26:25.605Z,92.30
2019-04-23T17:27:24.056Z,92.30
2019-04-23T17:29:28.265Z,92.39
2019-04-23T17:30:20.306Z,92.30
2019-04-23T17:32:05.659Z,92.58
2019-04-23T17:33:13.895Z,92.20
2019-04-23T17:35:06.667Z,92.49
2019-04-23T17:36:13.205Z,92.87
2019-04-23T17:37:59.814Z,92.49
2019-04-23T17:40:54.010Z,92.30
2019-04-23T17:42:01.933Z,92.87
2019-04-23T17:43:42.349Z,92.39
2019-04-23T17:44:42.515Z,92.87
2019-04-23T17:46:37.646Z,93.06
2019-04-23T17:47:37.498Z,92.97
2019-04-23T17:49:26.355Z,93.93
2019-04-23T17:50:26.915Z,93.54
2019-04-23T17:52:21.856Z,93.63
2019-04-23T17:53:21.946Z,93.93
2019-04-23T17:55:13.294Z,94.59
2019-04-23T17:56:18.500Z,94.79
2019-04-23T17:58:06.108Z,94.45
2019-04-23T17:59:09.241Z,94.31
2019-04-23T18:01:14.455Z,94.89
2019-04-23T18:02:22.304Z,94.69
2019-04-23T18:04:56.851Z,93.83
2019-04-23T18:07:00.449Z,93.83
2019-04-23T18:07:54.618Z,93.73
2019-04-23T18:09:38.546Z,93.83
2019-04-23T18:12:39.075Z,93.16
2019-04-23T18:13:28.227Z,93.26
2019-04-23T18:15:16.030Z,92.39
2019-04-23T18:16:27.672Z,93.35
2019-04-23T18:18:10.250Z,92.58
2019-04-23T18:19:13.129Z,92.58
2019-04-23T18:21:15.971Z,91.82
2019-04-23T18:22:10.953Z,91.53
2019-04-23T18:24:06.760Z,91.34
2019-04-23T18:24:59.368Z,91.63
2019-04-23T18:26:51.695Z,90.67
2019-04-23T18:30:40.536Z,90.67
2019-04-23T18:33:14.026Z,90.86
2019-04-23T18:35:28.288Z,89.61
2019-04-23T18:39:23.837Z,88.70
2019-04-23T18:42:45.083Z,88.12
2019-04-23T18:45:07.153Z,86.30
2019-04-23T18:47:00.380Z,86.40
2019-04-23T18:47:56.978Z,86.40
2019-04-23T18:51:00.326Z,85.63
2019-04-23T18:53:48.429Z,84.48
2019-04-23T18:56:05.649Z,84.19
2019-04-23T18:56:51.918Z,83.75
2019-04-23T18:58:37.738Z,83.52
2019-04-23T18:59:45.459Z,83.18
2019-04-23T19:01:28.023Z,83.27
2019-04-23T19:04:29.294Z,82.98
2019-04-23T19:05:28.954Z,82.98
2019-04-23T19:07:07.477Z,83.37
2019-04-23T19:08:19.084Z,83.18
2019-04-23T19:10:15.765Z,82.98
2019-04-23T19:10:57.809Z,83.18
2019-04-23T19:12:48.222Z,83.37
2019-04-23T19:13:55.742Z,82.85
2019-04-23T19:17:27.170Z,82.79
2019-04-23T19:18:40.392Z,82.89
2019-04-23T19:19:44.354Z,83.08
2019-04-23T19:22:42.829Z,82.21
2019-04-23T19:24:27.617Z,81.93
2019-04-23T19:25:46.813Z,82.51
2019-04-23T19:27:37.109Z,82.41
2019-04-23T19:28:34.582Z,82.51
2019-04-23T19:30:13.532Z,82.60
2019-04-23T19:31:07.346Z,82.03
2019-04-23T19:33:05.759Z,82.60
2019-04-23T19:34:14.196Z,82.03
2019-04-23T19:37:15.488Z,82.31
2019-04-23T19:38:43.511Z,81.84
2019-04-23T19:41:59.386Z,81.54
2019-04-23T19:42:44.814Z,81.74
2019-04-23T19:44:40.688Z,81.64
2019-04-23T19:45:40.394Z,81.16
2019-04-23T19:48:30.381Z,80.87
2019-04-23T19:50:26.256Z,79.24
2019-04-23T19:54:25.640Z,78.00
2019-04-23T19:57:01.891Z,77.51
2019-04-23T19:58:58.247Z,77.51
2019-04-23T19:59:58.146Z,77.90
2019-04-23T20:01:58.882Z,77.33
2019-04-23T20:04:46.077Z,75.50
2019-04-23T20:05:47.220Z,75.60
2019-04-23T20:09:09.675Z,75.31
2019-04-23T20:10:30.339Z,74.83
2019-04-23T20:11:35.003Z,74.54
2019-04-23T20:13:31.460Z,74.44
2019-04-23T20:14:25.292Z,74.44
2019-04-23T20:16:25.981Z,74.44
2019-04-23T20:17:31.656Z,74.44
2019-04-23T20:19:12.415Z,74.54
2019-04-23T20:20:02.912Z,74.64
2019-04-23T20:22:55.558Z,74.16
2019-04-23T20:27:52.372Z,74.44
2019-04-23T20:32:46.135Z,74.44
2019-04-23T20:34:45.081Z,75.21
2019-04-23T20:36:32.590Z,74.44
2019-04-23T20:37:31.242Z,74.44
2019-04-23T20:39:21.492Z,75.21
2019-04-23T20:40:25.719Z,75.12
2019-04-23T20:42:16.292Z,75.08
2019-04-23T20:43:05.778Z,74.98
2019-04-23T20:45:00.714Z,74.60
2019-04-23T20:48:53.065Z,75.08
2019-04-23T20:50:43.931Z,75.08
2019-04-23T20:51:58.222Z,75.46
2019-04-23T20:53:49.646Z,75.46
2019-04-23T20:54:56.959Z,75.95
2019-04-23T20:56:47.744Z,75.85
2019-04-23T20:57:44.698Z,75.65
2019-04-23T20:59:24.351Z,76.42
2019-04-23T21:00:24.318Z,75.95
2019-04-23T21:02:29.217Z,76.14
2019-04-23T21:03:30.574Z,75.95
2019-04-23T21:06:10.213Z,76.14
2019-04-23T21:10:50.679Z,76.42
2019-04-23T21:12:04.174Z,76.23
2019-04-23T21:15:05.311Z,76.62
2019-04-23T21:16:41.149Z,77.19
2019-04-23T21:19:42.083Z,77.48
2019-04-23T21:20:36.672Z,76.62
2019-04-23T21:22:48.257Z,76.42
2019-04-23T21:23:47.565Z,76.32
2019-04-23T21:25:27.399Z,76.42
2019-04-23T21:26:16.715Z,76.52
2019-04-23T21:28:17.804Z,77.00
2019-04-23T21:29:03.872Z,77.19
2019-04-23T21:31:06.553Z,77.19
2019-04-23T21:32:19.364Z,76.86
2019-04-23T21:35:15.904Z,77.44
2019-04-23T21:36:50.984Z,77.82
2019-04-23T21:37:55.947Z,77.73
2019-04-23T21:39:53.920Z,77.63
2019-04-23T21:42:51.737Z,77.73
2019-04-23T21:43:57.342Z,77.63
2019-04-23T21:45:30.542Z,78.11
2019-04-23T21:48:28.702Z,78.11
2019-04-23T21:49:29.600Z,78.49
2019-04-23T21:51:30.872Z,78.49
2019-04-23T21:52:11.787Z,78.40
2019-04-23T21:53:58.754Z,78.30
2019-04-23T21:55:04.155Z,78.97
2019-04-23T21:56:57.212Z,78.78
2019-04-23T22:01:01.723Z,79.55
2019-04-23T22:04:05.075Z,79.64
2019-04-23T22:05:47.201Z,79.89
2019-04-23T22:06:46.418Z,80.18
2019-04-23T22:08:38.570Z,79.99
2019-04-23T22:09:34.590Z,79.80
2019-04-23T22:12:23.018Z,80.18
2019-04-23T22:15:14.640Z,80.37
2019-04-23T22:17:11.558Z,80.66
2019-04-23T22:18:05.812Z,80.94
2019-04-23T22:21:06.516Z,80.85
2019-04-23T22:23:03.797Z,81.13
2019-04-23T22:24:05.591Z,81.62
2019-04-23T22:28:52.379Z,81.81
2019-04-23T22:29:39.134Z,81.81
2019-04-23T22:31:37.326Z,82.00
2019-04-23T22:32:42.959Z,82.00
2019-04-23T22:34:30.979Z,81.90
2019-04-23T22:35:24.298Z,82.29
2019-04-23T22:37:17.827Z,82.19
2019-04-23T22:38:21.562Z,82.29
2019-04-23T22:40:34.963Z,82.38
2019-04-23T22:41:12.166Z,82.19
2019-04-23T22:43:15.692Z,83.15
2019-04-23T22:45:59.829Z,82.38
2019-04-23T22:48:57.961Z,82.86
2019-04-23T22:49:57.223Z,82.92
2019-04-23T22:54:30.523Z,82.63
2019-04-23T22:55:40.381Z,83.01
2019-04-23T22:57:45.402Z,83.30
2019-04-23T22:58:36.001Z,82.73
2019-04-23T23:03:14.765Z,83.01